Portada
METAR-TAF:

METAR-TAF

Aeroports :

Dumaguete, Filipines

latitud: 09-20-01N, longitud: 123-18-02E, altitud: 5 m

Observació

L'informe es va fer fa 2 hores i 36 minuts, a les 12:00 UTC
Vent 4 kt del Oest/Nord-Oest
Temperatura 29°C
Humitat 84%
Pressió 1008 hPa
Visibilitat 10 km o més
Escasses núvols a una alçada de 1400 ft, Cumulonimbus.

METAR: RPVD 221200Z 29004KT 9999 FEW014CB 29/26 Q1008 RMK A2977 CB W W/ OCNL LTG

Hora: 22:36 (14:36 UTC)

Pronòstic

L'informe es va fer fa 3 hores i 36 minuts, a les 11:00 UTC
Pronòstic vàlid del 22 a les 12 UTC al 23 a les 12 UTC
Vent 4 kt del Est/Nord-Est
Visibilitat 10 km o més
Escasses núvols a una alçada de 1500 ft
Evolucionant progressivament
l' 22 a les 16 UTC al 22 a les 18 UTC
Vent 5 kt del Nord/Nord-Est
Evolucionant progressivament
l' 23 a les 00 UTC al 23 a les 02 UTC
Vent 8 kt del Est/Nord-Est
Escasses núvols a una alçada de 2400 ft

TAF: RPVD 221100Z 2212/2312 07004KT 9999 FEW015 BECMG 2216/2218 02005KT BECMG 2300/2302 07008KT FEW024

Observacions i pronòstics meteorològics de més de 4000 aeroports (METAR i TAF).

Les estacions disponibles són els punts grocs i vermells al mapa.

Posi el ratolí al punt desitjat per veure el nom de l'estació.

Feu clic per veure les observacions i els pronòstics meteorològics.

Per canviar el mapa: feu clic els botons verds amb una creu de color negre per apropar; al botó verd amb un guió per allunyar la imatge; o en les fletxes verdes per a mapes adjacents.


METAR-TAF: